sensor_id;sensor_type;location;lat;lon;timestamp;temperature;humidity
16485;DHT22;8353;47.856;12.344;2022-07-10T00:00:53;21.10;99.90
16485;DHT22;8353;47.856;12.344;2022-07-10T00:03:23;21.20;99.90
16485;DHT22;8353;47.856;12.344;2022-07-10T00:05:55;21.30;99.90
16485;DHT22;8353;47.856;12.344;2022-07-10T00:08:26;21.40;99.90
16485;DHT22;8353;47.856;12.344;2022-07-10T00:10:57;21.40;99.90
16485;DHT22;8353;47.856;12.344;2022-07-10T00:13:28;21.30;99.90
16485;DHT22;8353;47.856;12.344;2022-07-10T00:15:57;21.20;99.90
16485;DHT22;8353;47.856;12.344;2022-07-10T00:18:28;21.10;99.90
16485;DHT22;8353;47.856;12.344;2022-07-10T00:21:00;21.10;99.90
16485;DHT22;8353;47.856;12.344;2022-07-10T00:23:31;21.10;99.90
16485;DHT22;8353;47.856;12.344;2022-07-10T00:26:01;21.00;99.90
16485;DHT22;8353;47.856;12.344;2022-07-10T00:28:32;21.00;99.90
16485;DHT22;8353;47.856;12.344;2022-07-10T00:31:03;20.90;99.90
16485;DHT22;8353;47.856;12.344;2022-07-10T00:33:33;20.90;99.90
16485;DHT22;8353;47.856;12.344;2022-07-10T00:36:06;21.00;99.90
16485;DHT22;8353;47.856;12.344;2022-07-10T00:38:37;20.90;99.90
16485;DHT22;8353;47.856;12.344;2022-07-10T00:41:07;20.80;99.90
16485;DHT22;8353;47.856;12.344;2022-07-10T00:43:54;20.80;99.90
16485;DHT22;8353;47.856;12.344;2022-07-10T00:46:26;20.70;99.90
16485;DHT22;8353;47.856;12.344;2022-07-10T00:48:57;20.70;99.90
16485;DHT22;8353;47.856;12.344;2022-07-10T00:51:30;20.60;99.90
16485;DHT22;8353;47.856;12.344;2022-07-10T00:54:03;20.60;99.90
16485;DHT22;8353;47.856;12.344;2022-07-10T00:56:36;20.60;99.90
16485;DHT22;8353;47.856;12.344;2022-07-10T00:59:08;20.60;99.90
16485;DHT22;8353;47.856;12.344;2022-07-10T01:01:39;20.50;99.90
16485;DHT22;8353;47.856;12.344;2022-07-10T01:04:12;20.60;99.90
16485;DHT22;8353;47.856;12.344;2022-07-10T01:06:59;20.80;99.90
16485;DHT22;8353;47.856;12.344;2022-07-10T01:09:31;20.70;99.90
16485;DHT22;8353;47.856;12.344;2022-07-10T01:12:02;20.70;99.90
16485;DHT22;8353;47.856;12.344;2022-07-10T01:14:34;20.90;99.90
16485;DHT22;8353;47.856;12.344;2022-07-10T01:17:08;20.90;99.90
16485;DHT22;8353;47.856;12.344;2022-07-10T01:19:38;20.90;99.90
16485;DHT22;8353;47.856;12.344;2022-07-10T01:22:10;21.00;99.90
16485;DHT22;8353;47.856;12.344;2022-07-10T01:24:40;21.00;99.90
16485;DHT22;8353;47.856;12.344;2022-07-10T01:27:11;20.90;99.90
16485;DHT22;8353;47.856;12.344;2022-07-10T01:29:42;20.80;99.90
16485;DHT22;8353;47.856;12.344;2022-07-10T01:32:14;20.70;99.90
16485;DHT22;8353;47.856;12.344;2022-07-10T01:34:44;20.60;99.90
16485;DHT22;8353;47.856;12.344;2022-07-10T01:37:17;20.70;99.90
16485;DHT22;8353;47.856;12.344;2022-07-10T01:39:47;20.70;99.90
16485;DHT22;8353;47.856;12.344;2022-07-10T01:42:18;20.90;99.90
16485;DHT22;8353;47.856;12.344;2022-07-10T01:44:48;20.90;99.90
16485;DHT22;8353;47.856;12.344;2022-07-10T01:47:19;20.90;99.90
16485;DHT22;8353;47.856;12.344;2022-07-10T01:49:53;21.00;99.90
16485;DHT22;8353;47.856;12.344;2022-07-10T01:52:25;20.90;99.90
16485;DHT22;8353;47.856;12.344;2022-07-10T01:54:56;20.90;99.90
16485;DHT22;8353;47.856;12.344;2022-07-10T01:57:26;20.90;99.90
16485;DHT22;8353;47.856;12.344;2022-07-10T01:59:57;21.00;99.90
16485;DHT22;8353;47.856;12.344;2022-07-10T02:02:28;21.00;99.90
16485;DHT22;8353;47.856;12.344;2022-07-10T02:04:58;20.80;99.90
16485;DHT22;8353;47.856;12.344;2022-07-10T02:07:29;20.80;99.90
16485;DHT22;8353;47.856;12.344;2022-07-10T02:10:00;20.80;99.90
16485;DHT22;8353;47.856;12.344;2022-07-10T02:12:31;20.80;99.90
16485;DHT22;8353;47.856;12.344;2022-07-10T02:15:02;20.70;99.90
16485;DHT22;8353;47.856;12.344;2022-07-10T02:17:33;20.50;99.90
16485;DHT22;8353;47.856;12.344;2022-07-10T02:20:04;20.60;99.90
16485;DHT22;8353;47.856;12.344;2022-07-10T02:22:37;20.60;99.90
16485;DHT22;8353;47.856;12.344;2022-07-10T02:25:08;20.60;99.90
16485;DHT22;8353;47.856;12.344;2022-07-10T02:27:38;20.60;99.90
16485;DHT22;8353;47.856;12.344;2022-07-10T02:30:10;20.60;99.90
16485;DHT22;8353;47.856;12.344;2022-07-10T02:32:40;20.70;99.90
16485;DHT22;8353;47.856;12.344;2022-07-10T02:35:11;20.60;99.90
16485;DHT22;8353;47.856;12.344;2022-07-10T02:37:43;20.70;99.90
16485;DHT22;8353;47.856;12.344;2022-07-10T02:40:15;20.70;99.90
16485;DHT22;8353;47.856;12.344;2022-07-10T02:42:45;20.70;99.90
16485;DHT22;8353;47.856;12.344;2022-07-10T02:45:16;20.60;99.90
16485;DHT22;8353;47.856;12.344;2022-07-10T02:47:46;20.60;99.90
16485;DHT22;8353;47.856;12.344;2022-07-10T02:50:16;20.50;99.90
16485;DHT22;8353;47.856;12.344;2022-07-10T02:52:48;20.40;99.90
16485;DHT22;8353;47.856;12.344;2022-07-10T02:55:19;20.20;99.90
16485;DHT22;8353;47.856;12.344;2022-07-10T02:57:50;20.00;99.90
16485;DHT22;8353;47.856;12.344;2022-07-10T03:00:21;20.00;99.90
16485;DHT22;8353;47.856;12.344;2022-07-10T03:02:51;20.00;99.90
16485;DHT22;8353;47.856;12.344;2022-07-10T03:05:21;20.00;99.90
16485;DHT22;8353;47.856;12.344;2022-07-10T03:07:53;19.80;99.90
16485;DHT22;8353;47.856;12.344;2022-07-10T03:10:24;19.60;99.90
16485;DHT22;8353;47.856;12.344;2022-07-10T03:12:55;19.50;99.90
16485;DHT22;8353;47.856;12.344;2022-07-10T03:15:26;19.50;99.90
16485;DHT22;8353;47.856;12.344;2022-07-10T03:17:56;19.50;99.90
16485;DHT22;8353;47.856;12.344;2022-07-10T03:20:27;19.60;99.90
16485;DHT22;8353;47.856;12.344;2022-07-10T03:22:59;19.60;99.90
16485;DHT22;8353;47.856;12.344;2022-07-10T03:25:29;19.70;99.90
16485;DHT22;8353;47.856;12.344;2022-07-10T03:28:00;19.70;99.90
16485;DHT22;8353;47.856;12.344;2022-07-10T03:30:31;19.70;99.90
16485;DHT22;8353;47.856;12.344;2022-07-10T03:33:02;19.60;99.90
16485;DHT22;8353;47.856;12.344;2022-07-10T03:35:33;19.50;99.90
16485;DHT22;8353;47.856;12.344;2022-07-10T03:38:05;19.30;99.90
16485;DHT22;8353;47.856;12.344;2022-07-10T03:40:35;19.10;99.90
16485;DHT22;8353;47.856;12.344;2022-07-10T03:43:06;19.00;99.90
16485;DHT22;8353;47.856;12.344;2022-07-10T03:45:36;18.90;99.90
16485;DHT22;8353;47.856;12.344;2022-07-10T03:48:08;19.20;99.90
16485;DHT22;8353;47.856;12.344;2022-07-10T03:50:39;19.20;99.90
16485;DHT22;8353;47.856;12.344;2022-07-10T03:53:10;19.20;99.90
16485;DHT22;8353;47.856;12.344;2022-07-10T03:55:42;19.20;99.90
16485;DHT22;8353;47.856;12.344;2022-07-10T03:58:12;19.10;99.90
16485;DHT22;8353;47.856;12.344;2022-07-10T04:00:42;18.80;99.90
16485;DHT22;8353;47.856;12.344;2022-07-10T04:03:12;18.50;99.90
16485;DHT22;8353;47.856;12.344;2022-07-10T04:05:42;18.40;99.90
16485;DHT22;8353;47.856;12.344;2022-07-10T04:08:14;18.30;99.90
16485;DHT22;8353;47.856;12.344;2022-07-10T04:10:45;18.20;99.90
16485;DHT22;8353;47.856;12.344;2022-07-10T04:13:16;18.30;99.90
16485;DHT22;8353;47.856;12.344;2022-07-10T04:15:47;18.50;99.90
16485;DHT22;8353;47.856;12.344;2022-07-10T04:18:18;18.60;99.90
16485;DHT22;8353;47.856;12.344;2022-07-10T04:20:48;18.60;99.90
16485;DHT22;8353;47.856;12.344;2022-07-10T04:23:20;18.30;99.90
16485;DHT22;8353;47.856;12.344;2022-07-10T04:25:50;18.20;99.90
16485;DHT22;8353;47.856;12.344;2022-07-10T04:28:21;18.20;99.90
16485;DHT22;8353;47.856;12.344;2022-07-10T04:30:52;18.30;99.90
16485;DHT22;8353;47.856;12.344;2022-07-10T04:33:24;18.40;99.90
16485;DHT22;8353;47.856;12.344;2022-07-10T04:35:55;18.40;99.90
16485;DHT22;8353;47.856;12.344;2022-07-10T04:38:26;18.50;99.90
16485;DHT22;8353;47.856;12.344;2022-07-10T04:40:58;18.30;99.90
16485;DHT22;8353;47.856;12.344;2022-07-10T04:43:30;18.20;99.90
16485;DHT22;8353;47.856;12.344;2022-07-10T04:46:00;18.30;99.90
16485;DHT22;8353;47.856;12.344;2022-07-10T04:48:31;18.30;99.90
16485;DHT22;8353;47.856;12.344;2022-07-10T04:51:01;18.30;99.90
16485;DHT22;8353;47.856;12.344;2022-07-10T04:53:33;18.20;99.90
16485;DHT22;8353;47.856;12.344;2022-07-10T04:56:03;18.10;99.90
16485;DHT22;8353;47.856;12.344;2022-07-10T04:58:34;18.20;99.90
16485;DHT22;8353;47.856;12.344;2022-07-10T05:01:06;18.10;99.90
16485;DHT22;8353;47.856;12.344;2022-07-10T05:03:36;18.20;99.90
16485;DHT22;8353;47.856;12.344;2022-07-10T05:06:06;18.20;99.90
16485;DHT22;8353;47.856;12.344;2022-07-10T05:08:38;18.30;99.90
16485;DHT22;8353;47.856;12.344;2022-07-10T05:11:09;18.40;99.90
16485;DHT22;8353;47.856;12.344;2022-07-10T05:13:40;18.40;99.90
16485;DHT22;8353;47.856;12.344;2022-07-10T05:16:14;18.30;99.90
16485;DHT22;8353;47.856;12.344;2022-07-10T05:18:45;18.40;99.90
16485;DHT22;8353;47.856;12.344;2022-07-10T05:21:16;18.40;99.90
16485;DHT22;8353;47.856;12.344;2022-07-10T05:23:48;18.50;99.90
16485;DHT22;8353;47.856;12.344;2022-07-10T05:26:18;18.60;99.90
16485;DHT22;8353;47.856;12.344;2022-07-10T05:28:53;18.50;99.90
16485;DHT22;8353;47.856;12.344;2022-07-10T05:31:23;18.30;99.90
16485;DHT22;8353;47.856;12.344;2022-07-10T05:33:54;18.40;99.90
16485;DHT22;8353;47.856;12.344;2022-07-10T05:36:24;18.40;99.90
16485;DHT22;8353;47.856;12.344;2022-07-10T05:38:56;18.40;99.90
16485;DHT22;8353;47.856;12.344;2022-07-10T05:41:26;18.50;99.90
16485;DHT22;8353;47.856;12.344;2022-07-10T05:43:58;18.70;99.90
16485;DHT22;8353;47.856;12.344;2022-07-10T05:46:29;18.80;99.90
16485;DHT22;8353;47.856;12.344;2022-07-10T05:49:00;18.80;99.90
16485;DHT22;8353;47.856;12.344;2022-07-10T05:51:31;18.80;99.90
16485;DHT22;8353;47.856;12.344;2022-07-10T05:54:03;18.80;99.90
16485;DHT22;8353;47.856;12.344;2022-07-10T05:56:34;18.60;99.90
16485;DHT22;8353;47.856;12.344;2022-07-10T05:59:04;18.50;99.90
16485;DHT22;8353;47.856;12.344;2022-07-10T06:01:35;18.60;99.90
16485;DHT22;8353;47.856;12.344;2022-07-10T06:04:05;18.60;99.90
16485;DHT22;8353;47.856;12.344;2022-07-10T06:06:36;18.60;99.90
16485;DHT22;8353;47.856;12.344;2022-07-10T06:09:08;18.50;99.90
16485;DHT22;8353;47.856;12.344;2022-07-10T06:11:38;18.60;99.90
16485;DHT22;8353;47.856;12.344;2022-07-10T06:14:11;18.70;99.90
16485;DHT22;8353;47.856;12.344;2022-07-10T06:16:42;18.80;99.90
16485;DHT22;8353;47.856;12.344;2022-07-10T06:19:12;18.90;99.90
16485;DHT22;8353;47.856;12.344;2022-07-10T06:21:43;19.10;99.90
16485;DHT22;8353;47.856;12.344;2022-07-10T06:24:14;18.90;99.90
16485;DHT22;8353;47.856;12.344;2022-07-10T06:26:45;19.00;99.90
16485;DHT22;8353;47.856;12.344;2022-07-10T06:29:16;19.20;99.90
16485;DHT22;8353;47.856;12.344;2022-07-10T06:31:47;19.40;99.90
16485;DHT22;8353;47.856;12.344;2022-07-10T06:34:17;19.70;99.90
16485;DHT22;8353;47.856;12.344;2022-07-10T06:36:48;19.70;99.90
16485;DHT22;8353;47.856;12.344;2022-07-10T06:39:20;19.60;99.90
16485;DHT22;8353;47.856;12.344;2022-07-10T06:41:51;19.60;99.90
16485;DHT22;8353;47.856;12.344;2022-07-10T06:44:21;19.50;99.90
16485;DHT22;8353;47.856;12.344;2022-07-10T06:46:53;19.30;99.90
16485;DHT22;8353;47.856;12.344;2022-07-10T06:49:37;19.40;99.90
16485;DHT22;8353;47.856;12.344;2022-07-10T06:52:08;19.50;99.90
16485;DHT22;8353;47.856;12.344;2022-07-10T06:54:43;19.50;99.90
16485;DHT22;8353;47.856;12.344;2022-07-10T06:57:14;19.60;99.90
16485;DHT22;8353;47.856;12.344;2022-07-10T06:59:45;19.50;99.90
16485;DHT22;8353;47.856;12.344;2022-07-10T07:02:16;19.70;99.90
16485;DHT22;8353;47.856;12.344;2022-07-10T07:04:46;19.50;99.90
16485;DHT22;8353;47.856;12.344;2022-07-10T07:07:16;19.70;99.90
16485;DHT22;8353;47.856;12.344;2022-07-10T07:09:48;19.70;99.90
16485;DHT22;8353;47.856;12.344;2022-07-10T07:12:20;19.90;99.90
16485;DHT22;8353;47.856;12.344;2022-07-10T07:14:50;19.70;99.90
16485;DHT22;8353;47.856;12.344;2022-07-10T07:17:21;19.70;99.90
16485;DHT22;8353;47.856;12.344;2022-07-10T07:19:56;19.80;99.90
16485;DHT22;8353;47.856;12.344;2022-07-10T07:22:44;19.90;99.90
16485;DHT22;8353;47.856;12.344;2022-07-10T07:25:34;20.10;99.90
16485;DHT22;8353;47.856;12.344;2022-07-10T07:28:05;20.10;99.90
16485;DHT22;8353;47.856;12.344;2022-07-10T07:30:40;20.30;99.90
16485;DHT22;8353;47.856;12.344;2022-07-10T07:33:11;20.40;99.90
16485;DHT22;8353;47.856;12.344;2022-07-10T07:35:41;20.60;99.90
16485;DHT22;8353;47.856;12.344;2022-07-10T07:38:12;20.50;99.90
16485;DHT22;8353;47.856;12.344;2022-07-10T07:40:44;20.70;99.90
16485;DHT22;8353;47.856;12.344;2022-07-10T07:43:14;21.00;99.90
16485;DHT22;8353;47.856;12.344;2022-07-10T07:45:45;21.10;99.90
16485;DHT22;8353;47.856;12.344;2022-07-10T07:48:17;21.20;99.90
16485;DHT22;8353;47.856;12.344;2022-07-10T07:50:47;21.20;99.90
16485;DHT22;8353;47.856;12.344;2022-07-10T07:53:18;21.60;99.90
16485;DHT22;8353;47.856;12.344;2022-07-10T07:55:50;21.50;99.90
16485;DHT22;8353;47.856;12.344;2022-07-10T07:58:20;21.60;99.90
16485;DHT22;8353;47.856;12.344;2022-07-10T08:00:51;21.70;99.90
16485;DHT22;8353;47.856;12.344;2022-07-10T08:03:22;21.60;99.90
16485;DHT22;8353;47.856;12.344;2022-07-10T08:05:53;21.70;99.90
16485;DHT22;8353;47.856;12.344;2022-07-10T08:08:24;21.80;99.90
16485;DHT22;8353;47.856;12.344;2022-07-10T08:10:56;21.70;99.90
16485;DHT22;8353;47.856;12.344;2022-07-10T08:13:26;21.50;99.90
16485;DHT22;8353;47.856;12.344;2022-07-10T08:15:58;21.20;99.90
16485;DHT22;8353;47.856;12.344;2022-07-10T08:18:29;21.50;99.90
16485;DHT22;8353;47.856;12.344;2022-07-10T08:20:59;21.50;99.90
16485;DHT22;8353;47.856;12.344;2022-07-10T08:23:30;21.80;99.90
16485;DHT22;8353;47.856;12.344;2022-07-10T08:26:03;22.10;99.90
16485;DHT22;8353;47.856;12.344;2022-07-10T08:28:33;22.30;99.90
16485;DHT22;8353;47.856;12.344;2022-07-10T08:31:04;22.30;99.90
16485;DHT22;8353;47.856;12.344;2022-07-10T08:33:35;22.30;99.90
16485;DHT22;8353;47.856;12.344;2022-07-10T08:36:06;21.90;99.90
16485;DHT22;8353;47.856;12.344;2022-07-10T08:38:37;22.30;99.90
16485;DHT22;8353;47.856;12.344;2022-07-10T08:41:11;22.50;99.90
16485;DHT22;8353;47.856;12.344;2022-07-10T08:43:44;22.40;99.90
16485;DHT22;8353;47.856;12.344;2022-07-10T08:46:14;22.70;99.90
16485;DHT22;8353;47.856;12.344;2022-07-10T08:48:48;22.90;99.90
16485;DHT22;8353;47.856;12.344;2022-07-10T08:51:24;22.90;99.90
16485;DHT22;8353;47.856;12.344;2022-07-10T08:54:00;22.10;99.90
16485;DHT22;8353;47.856;12.344;2022-07-10T08:56:33;22.30;99.90
16485;DHT22;8353;47.856;12.344;2022-07-10T08:59:04;22.50;99.90
16485;DHT22;8353;47.856;12.344;2022-07-10T09:01:35;22.70;99.90
16485;DHT22;8353;47.856;12.344;2022-07-10T09:04:06;22.60;99.90
16485;DHT22;8353;47.856;12.344;2022-07-10T09:06:37;22.50;99.90
16485;DHT22;8353;47.856;12.344;2022-07-10T09:09:07;22.70;99.90
16485;DHT22;8353;47.856;12.344;2022-07-10T09:11:41;22.80;99.90
16485;DHT22;8353;47.856;12.344;2022-07-10T09:14:15;22.80;99.90
16485;DHT22;8353;47.856;12.344;2022-07-10T09:16:50;22.30;99.90
16485;DHT22;8353;47.856;12.344;2022-07-10T09:19:22;22.80;99.90
16485;DHT22;8353;47.856;12.344;2022-07-10T09:21:54;22.20;99.90
16485;DHT22;8353;47.856;12.344;2022-07-10T09:24:24;22.40;99.90
16485;DHT22;8353;47.856;12.344;2022-07-10T09:27:00;22.60;99.90
16485;DHT22;8353;47.856;12.344;2022-07-10T09:29:45;22.90;99.90
16485;DHT22;8353;47.856;12.344;2022-07-10T09:32:16;23.00;99.90
16485;DHT22;8353;47.856;12.344;2022-07-10T09:34:48;23.30;99.90
16485;DHT22;8353;47.856;12.344;2022-07-10T09:37:40;23.50;99.90
16485;DHT22;8353;47.856;12.344;2022-07-10T09:40:10;23.70;99.90
16485;DHT22;8353;47.856;12.344;2022-07-10T09:42:43;23.80;99.90
16485;DHT22;8353;47.856;12.344;2022-07-10T09:45:16;24.20;99.90
16485;DHT22;8353;47.856;12.344;2022-07-10T09:47:55;24.20;99.90
16485;DHT22;8353;47.856;12.344;2022-07-10T09:50:28;24.20;99.90
16485;DHT22;8353;47.856;12.344;2022-07-10T09:53:00;24.10;99.90
16485;DHT22;8353;47.856;12.344;2022-07-10T09:55:31;24.00;99.90
16485;DHT22;8353;47.856;12.344;2022-07-10T09:58:06;24.00;99.90
16485;DHT22;8353;47.856;12.344;2022-07-10T10:00:38;23.90;99.90
16485;DHT22;8353;47.856;12.344;2022-07-10T10:03:10;24.10;99.90
16485;DHT22;8353;47.856;12.344;2022-07-10T10:05:43;24.00;99.90
16485;DHT22;8353;47.856;12.344;2022-07-10T10:08:17;23.70;99.90
16485;DHT22;8353;47.856;12.344;2022-07-10T10:10:50;23.80;99.90
16485;DHT22;8353;47.856;12.344;2022-07-10T10:13:24;24.20;99.90
16485;DHT22;8353;47.856;12.344;2022-07-10T10:15:56;23.90;99.90
16485;DHT22;8353;47.856;12.344;2022-07-10T10:18:27;24.20;99.90
16485;DHT22;8353;47.856;12.344;2022-07-10T10:20:58;24.60;99.90
16485;DHT22;8353;47.856;12.344;2022-07-10T10:23:29;24.80;99.90
16485;DHT22;8353;47.856;12.344;2022-07-10T10:26:01;24.60;99.90
16485;DHT22;8353;47.856;12.344;2022-07-10T10:28:33;24.30;99.90
16485;DHT22;8353;47.856;12.344;2022-07-10T10:31:05;24.40;99.90
16485;DHT22;8353;47.856;12.344;2022-07-10T10:33:43;25.00;99.90
16485;DHT22;8353;47.856;12.344;2022-07-10T10:36:45;24.70;99.90
16485;DHT22;8353;47.856;12.344;2022-07-10T10:39:17;24.80;99.90
16485;DHT22;8353;47.856;12.344;2022-07-10T10:41:51;24.50;99.90
16485;DHT22;8353;47.856;12.344;2022-07-10T10:44:27;24.50;99.90
16485;DHT22;8353;47.856;12.344;2022-07-10T10:47:04;24.50;99.90
16485;DHT22;8353;47.856;12.344;2022-07-10T10:49:50;24.30;99.90
16485;DHT22;8353;47.856;12.344;2022-07-10T10:52:21;24.30;99.90
16485;DHT22;8353;47.856;12.344;2022-07-10T10:55:05;24.30;99.90
16485;DHT22;8353;47.856;12.344;2022-07-10T10:57:42;24.30;99.90
16485;DHT22;8353;47.856;12.344;2022-07-10T11:00:33;24.40;99.90
16485;DHT22;8353;47.856;12.344;2022-07-10T11:03:21;24.30;99.90
16485;DHT22;8353;47.856;12.344;2022-07-10T11:05:57;24.20;99.90
16485;DHT22;8353;47.856;12.344;2022-07-10T11:08:39;24.00;99.90
16485;DHT22;8353;47.856;12.344;2022-07-10T11:11:38;24.10;99.90
16485;DHT22;8353;47.856;12.344;2022-07-10T11:14:11;24.20;99.90
16485;DHT22;8353;47.856;12.344;2022-07-10T11:16:52;24.10;99.90
16485;DHT22;8353;47.856;12.344;2022-07-10T11:19:25;23.90;99.90
16485;DHT22;8353;47.856;12.344;2022-07-10T11:22:11;24.20;99.90
16485;DHT22;8353;47.856;12.344;2022-07-10T11:24:50;24.30;99.90
16485;DHT22;8353;47.856;12.344;2022-07-10T11:27:29;24.10;99.90
16485;DHT22;8353;47.856;12.344;2022-07-10T11:30:05;23.50;99.90
16485;DHT22;8353;47.856;12.344;2022-07-10T11:32:37;23.60;99.90
16485;DHT22;8353;47.856;12.344;2022-07-10T11:35:11;23.70;99.90
16485;DHT22;8353;47.856;12.344;2022-07-10T11:37:49;23.50;99.90
16485;DHT22;8353;47.856;12.344;2022-07-10T11:40:20;23.60;99.90
16485;DHT22;8353;47.856;12.344;2022-07-10T11:42:52;23.40;99.90
16485;DHT22;8353;47.856;12.344;2022-07-10T11:45:25;23.40;99.90
16485;DHT22;8353;47.856;12.344;2022-07-10T11:47:57;23.30;99.90
16485;DHT22;8353;47.856;12.344;2022-07-10T11:50:27;23.30;99.90
16485;DHT22;8353;47.856;12.344;2022-07-10T11:53:04;23.40;99.90
16485;DHT22;8353;47.856;12.344;2022-07-10T11:55:34;23.40;99.90
16485;DHT22;8353;47.856;12.344;2022-07-10T11:58:14;23.20;99.90
16485;DHT22;8353;47.856;12.344;2022-07-10T12:00:57;23.30;99.90
16485;DHT22;8353;47.856;12.344;2022-07-10T12:03:31;23.00;99.90
16485;DHT22;8353;47.856;12.344;2022-07-10T12:06:03;23.10;99.90
16485;DHT22;8353;47.856;12.344;2022-07-10T12:08:44;23.40;99.90
16485;DHT22;8353;47.856;12.344;2022-07-10T12:11:16;23.50;99.90
16485;DHT22;8353;47.856;12.344;2022-07-10T12:13:48;23.50;99.90
16485;DHT22;8353;47.856;12.344;2022-07-10T12:16:20;23.50;99.90
16485;DHT22;8353;47.856;12.344;2022-07-10T12:18:54;23.70;99.90
16485;DHT22;8353;47.856;12.344;2022-07-10T12:21:26;23.50;99.90
16485;DHT22;8353;47.856;12.344;2022-07-10T12:23:57;23.70;99.90
16485;DHT22;8353;47.856;12.344;2022-07-10T12:26:35;24.30;99.90
16485;DHT22;8353;47.856;12.344;2022-07-10T12:29:06;23.90;99.90
16485;DHT22;8353;47.856;12.344;2022-07-10T12:31:37;23.60;99.90
16485;DHT22;8353;47.856;12.344;2022-07-10T12:34:10;24.00;99.90
16485;DHT22;8353;47.856;12.344;2022-07-10T12:36:42;23.80;99.90
16485;DHT22;8353;47.856;12.344;2022-07-10T12:39:15;23.90;99.90
16485;DHT22;8353;47.856;12.344;2022-07-10T12:41:56;23.90;99.90
16485;DHT22;8353;47.856;12.344;2022-07-10T12:44:34;24.10;99.90
16485;DHT22;8353;47.856;12.344;2022-07-10T12:47:07;24.00;99.90
16485;DHT22;8353;47.856;12.344;2022-07-10T12:49:56;23.70;99.90
16485;DHT22;8353;47.856;12.344;2022-07-10T12:52:28;23.60;99.90
16485;DHT22;8353;47.856;12.344;2022-07-10T12:55:06;23.50;99.90
16485;DHT22;8353;47.856;12.344;2022-07-10T12:57:49;23.80;99.90
16485;DHT22;8353;47.856;12.344;2022-07-10T13:00:21;23.50;99.90
16485;DHT22;8353;47.856;12.344;2022-07-10T13:02:58;23.80;99.90
16485;DHT22;8353;47.856;12.344;2022-07-10T13:05:32;23.90;99.90
16485;DHT22;8353;47.856;12.344;2022-07-10T13:08:07;24.00;99.90
16485;DHT22;8353;47.856;12.344;2022-07-10T13:10:41;24.10;99.90
16485;DHT22;8353;47.856;12.344;2022-07-10T13:13:12;24.20;99.90
16485;DHT22;8353;47.856;12.344;2022-07-10T13:15:43;24.40;99.90
16485;DHT22;8353;47.856;12.344;2022-07-10T13:18:20;24.10;99.90
16485;DHT22;8353;47.856;12.344;2022-07-10T13:20:54;24.30;99.90
16485;DHT22;8353;47.856;12.344;2022-07-10T13:23:25;24.40;99.90
16485;DHT22;8353;47.856;12.344;2022-07-10T13:25:57;24.70;99.90
16485;DHT22;8353;47.856;12.344;2022-07-10T13:28:28;24.90;99.90
16485;DHT22;8353;47.856;12.344;2022-07-10T13:30:58;24.70;99.90
16485;DHT22;8353;47.856;12.344;2022-07-10T13:33:29;24.90;99.90
16485;DHT22;8353;47.856;12.344;2022-07-10T13:36:03;25.10;99.90
16485;DHT22;8353;47.856;12.344;2022-07-10T13:38:34;25.10;99.90
16485;DHT22;8353;47.856;12.344;2022-07-10T13:41:06;25.00;99.90
16485;DHT22;8353;47.856;12.344;2022-07-10T13:43:37;25.00;99.90
16485;DHT22;8353;47.856;12.344;2022-07-10T13:46:08;24.80;99.90
16485;DHT22;8353;47.856;12.344;2022-07-10T13:48:38;24.80;99.90
16485;DHT22;8353;47.856;12.344;2022-07-10T13:51:10;24.80;99.90
16485;DHT22;8353;47.856;12.344;2022-07-10T13:53:40;24.60;99.90
16485;DHT22;8353;47.856;12.344;2022-07-10T13:56:11;24.90;99.90
16485;DHT22;8353;47.856;12.344;2022-07-10T13:58:42;25.00;99.90
16485;DHT22;8353;47.856;12.344;2022-07-10T14:01:13;24.80;99.90
16485;DHT22;8353;47.856;12.344;2022-07-10T14:03:43;24.20;99.90
16485;DHT22;8353;47.856;12.344;2022-07-10T14:06:16;24.70;99.90
16485;DHT22;8353;47.856;12.344;2022-07-10T14:08:46;24.80;99.90
16485;DHT22;8353;47.856;12.344;2022-07-10T14:11:17;24.30;99.90
16485;DHT22;8353;47.856;12.344;2022-07-10T14:13:48;24.50;99.90
16485;DHT22;8353;47.856;12.344;2022-07-10T14:16:18;24.50;99.90
16485;DHT22;8353;47.856;12.344;2022-07-10T14:18:49;24.60;99.90
16485;DHT22;8353;47.856;12.344;2022-07-10T14:21:21;24.70;99.90
16485;DHT22;8353;47.856;12.344;2022-07-10T14:23:54;24.20;99.90
16485;DHT22;8353;47.856;12.344;2022-07-10T14:26:26;24.50;99.90
16485;DHT22;8353;47.856;12.344;2022-07-10T14:28:58;24.70;99.90
16485;DHT22;8353;47.856;12.344;2022-07-10T14:31:29;24.90;99.90
16485;DHT22;8353;47.856;12.344;2022-07-10T14:34:00;24.80;99.90
16485;DHT22;8353;47.856;12.344;2022-07-10T14:36:32;24.80;99.90
16485;DHT22;8353;47.856;12.344;2022-07-10T14:39:03;24.80;99.90
16485;DHT22;8353;47.856;12.344;2022-07-10T14:41:34;24.70;99.90
16485;DHT22;8353;47.856;12.344;2022-07-10T14:44:05;24.90;99.90
16485;DHT22;8353;47.856;12.344;2022-07-10T14:46:36;24.90;99.90
16485;DHT22;8353;47.856;12.344;2022-07-10T14:49:07;24.70;99.90
16485;DHT22;8353;47.856;12.344;2022-07-10T14:51:38;24.20;99.90
16485;DHT22;8353;47.856;12.344;2022-07-10T14:54:09;24.30;99.90
16485;DHT22;8353;47.856;12.344;2022-07-10T14:56:40;24.70;99.90
16485;DHT22;8353;47.856;12.344;2022-07-10T14:59:11;24.60;99.90
16485;DHT22;8353;47.856;12.344;2022-07-10T15:01:42;24.80;99.90
16485;DHT22;8353;47.856;12.344;2022-07-10T15:04:14;24.80;99.90
16485;DHT22;8353;47.856;12.344;2022-07-10T15:06:45;24.40;99.90
16485;DHT22;8353;47.856;12.344;2022-07-10T15:09:16;24.50;99.90
16485;DHT22;8353;47.856;12.344;2022-07-10T15:11:47;24.40;99.90
16485;DHT22;8353;47.856;12.344;2022-07-10T15:14:18;24.40;99.90
16485;DHT22;8353;47.856;12.344;2022-07-10T15:16:49;24.60;99.90
16485;DHT22;8353;47.856;12.344;2022-07-10T15:19:20;24.30;99.90
16485;DHT22;8353;47.856;12.344;2022-07-10T15:21:51;24.40;99.90
16485;DHT22;8353;47.856;12.344;2022-07-10T15:24:22;25.00;99.90
16485;DHT22;8353;47.856;12.344;2022-07-10T15:26:53;25.30;99.90
16485;DHT22;8353;47.856;12.344;2022-07-10T15:29:24;25.40;99.90
16485;DHT22;8353;47.856;12.344;2022-07-10T15:31:55;25.30;99.90
16485;DHT22;8353;47.856;12.344;2022-07-10T15:34:25;25.00;99.90
16485;DHT22;8353;47.856;12.344;2022-07-10T15:36:57;25.30;99.90
16485;DHT22;8353;47.856;12.344;2022-07-10T15:39:27;25.10;99.90
16485;DHT22;8353;47.856;12.344;2022-07-10T15:41:59;24.80;99.90
16485;DHT22;8353;47.856;12.344;2022-07-10T15:44:30;25.00;99.90
16485;DHT22;8353;47.856;12.344;2022-07-10T15:47:01;24.40;99.90
16485;DHT22;8353;47.856;12.344;2022-07-10T15:49:31;23.70;99.90
16485;DHT22;8353;47.856;12.344;2022-07-10T15:52:05;24.30;99.90
16485;DHT22;8353;47.856;12.344;2022-07-10T15:54:35;24.30;99.90
16485;DHT22;8353;47.856;12.344;2022-07-10T15:57:06;24.50;99.90
16485;DHT22;8353;47.856;12.344;2022-07-10T15:59:37;24.20;99.90
16485;DHT22;8353;47.856;12.344;2022-07-10T16:02:09;23.90;99.90